sensor_id;sensor_type;location;lat;lon;timestamp;pressure;altitude;pressure_sealevel;temperature;humidity
11936;BME280;6027;48.576;9.180;2022-10-31T00:01:42;97367.09;;;12.52;100.00
11936;BME280;6027;48.576;9.180;2022-10-31T00:04:07;97373.22;;;12.52;100.00
11936;BME280;6027;48.576;9.180;2022-10-31T00:06:33;97369.94;;;12.50;100.00
11936;BME280;6027;48.576;9.180;2022-10-31T00:09:00;97370.19;;;12.26;100.00
11936;BME280;6027;48.576;9.180;2022-10-31T00:11:26;97365.78;;;12.33;100.00
11936;BME280;6027;48.576;9.180;2022-10-31T00:13:52;97373.31;;;12.29;100.00
11936;BME280;6027;48.576;9.180;2022-10-31T00:16:20;97371.38;;;12.38;100.00
11936;BME280;6027;48.576;9.180;2022-10-31T00:18:56;97362.31;;;12.32;100.00
11936;BME280;6027;48.576;9.180;2022-10-31T00:21:23;97365.16;;;12.31;100.00
11936;BME280;6027;48.576;9.180;2022-10-31T00:23:48;97362.06;;;12.42;100.00
11936;BME280;6027;48.576;9.180;2022-10-31T00:26:14;97357.84;;;12.48;100.00
11936;BME280;6027;48.576;9.180;2022-10-31T00:28:41;97355.44;;;12.38;100.00
11936;BME280;6027;48.576;9.180;2022-10-31T00:31:09;97362.31;;;12.32;100.00
11936;BME280;6027;48.576;9.180;2022-10-31T00:33:36;97354.91;;;12.28;100.00
11936;BME280;6027;48.576;9.180;2022-10-31T00:36:03;97363.06;;;12.26;100.00
11936;BME280;6027;48.576;9.180;2022-10-31T00:38:30;97362.78;;;12.36;100.00
11936;BME280;6027;48.576;9.180;2022-10-31T00:40:55;97360.13;;;12.36;100.00
11936;BME280;6027;48.576;9.180;2022-10-31T00:43:21;97358.56;;;12.41;100.00
11936;BME280;6027;48.576;9.180;2022-10-31T00:45:46;97358.41;;;12.43;100.00
11936;BME280;6027;48.576;9.180;2022-10-31T00:48:12;97360.88;;;12.44;100.00
11936;BME280;6027;48.576;9.180;2022-10-31T00:50:38;97352.44;;;12.41;100.00
11936;BME280;6027;48.576;9.180;2022-10-31T00:53:03;97352.72;;;12.46;100.00
11936;BME280;6027;48.576;9.180;2022-10-31T00:55:29;97358.22;;;12.44;100.00
11936;BME280;6027;48.576;9.180;2022-10-31T00:57:54;97363.25;;;12.39;100.00
11936;BME280;6027;48.576;9.180;2022-10-31T01:00:20;97353.25;;;12.41;100.00
11936;BME280;6027;48.576;9.180;2022-10-31T01:02:46;97353.72;;;12.45;100.00
11936;BME280;6027;48.576;9.180;2022-10-31T01:05:11;97344.28;;;12.42;100.00
11936;BME280;6027;48.576;9.180;2022-10-31T01:07:41;97350.97;;;12.38;100.00
11936;BME280;6027;48.576;9.180;2022-10-31T01:10:07;97355.91;;;12.27;100.00
11936;BME280;6027;48.576;9.180;2022-10-31T01:12:40;97356.72;;;12.27;100.00
11936;BME280;6027;48.576;9.180;2022-10-31T01:15:07;97357.97;;;12.17;100.00
11936;BME280;6027;48.576;9.180;2022-10-31T01:17:33;97352.94;;;12.07;100.00
11936;BME280;6027;48.576;9.180;2022-10-31T01:19:58;97358.00;;;11.94;100.00
11936;BME280;6027;48.576;9.180;2022-10-31T01:22:24;97350.69;;;11.96;100.00
11936;BME280;6027;48.576;9.180;2022-10-31T01:24:49;97346.03;;;11.98;100.00
11936;BME280;6027;48.576;9.180;2022-10-31T01:27:15;97348.22;;;11.94;100.00
11936;BME280;6027;48.576;9.180;2022-10-31T01:29:40;97341.22;;;12.01;100.00
11936;BME280;6027;48.576;9.180;2022-10-31T01:32:06;97344.88;;;12.00;100.00
11936;BME280;6027;48.576;9.180;2022-10-31T01:34:31;97348.63;;;12.06;100.00
11936;BME280;6027;48.576;9.180;2022-10-31T01:36:57;97354.53;;;11.93;100.00
11936;BME280;6027;48.576;9.180;2022-10-31T01:39:22;97343.38;;;11.98;100.00
11936;BME280;6027;48.576;9.180;2022-10-31T01:41:50;97342.56;;;11.97;100.00
11936;BME280;6027;48.576;9.180;2022-10-31T01:46:48;97350.34;;;11.99;100.00
11936;BME280;6027;48.576;9.180;2022-10-31T01:49:22;97344.94;;;11.92;100.00
11936;BME280;6027;48.576;9.180;2022-10-31T01:51:54;97344.66;;;11.87;100.00
11936;BME280;6027;48.576;9.180;2022-10-31T01:54:24;97344.28;;;11.67;100.00
11936;BME280;6027;48.576;9.180;2022-10-31T01:56:53;97335.03;;;11.63;100.00
11936;BME280;6027;48.576;9.180;2022-10-31T01:59:20;97332.03;;;11.66;100.00
11936;BME280;6027;48.576;9.180;2022-10-31T02:01:48;97337.31;;;11.66;100.00
11936;BME280;6027;48.576;9.180;2022-10-31T02:04:15;97329.06;;;11.61;100.00
11936;BME280;6027;48.576;9.180;2022-10-31T02:06:48;97339.69;;;11.61;100.00
11936;BME280;6027;48.576;9.180;2022-10-31T02:09:15;97335.84;;;11.64;100.00
11936;BME280;6027;48.576;9.180;2022-10-31T02:11:42;97337.19;;;11.60;100.00
11936;BME280;6027;48.576;9.180;2022-10-31T02:14:09;97331.72;;;11.61;100.00
11936;BME280;6027;48.576;9.180;2022-10-31T02:16:35;97331.72;;;11.61;100.00
11936;BME280;6027;48.576;9.180;2022-10-31T02:19:01;97333.72;;;11.59;100.00
11936;BME280;6027;48.576;9.180;2022-10-31T02:21:37;97334.38;;;11.61;100.00
11936;BME280;6027;48.576;9.180;2022-10-31T02:27:12;97318.25;;;11.48;100.00
11936;BME280;6027;48.576;9.180;2022-10-31T02:30:00;97324.94;;;11.59;100.00
11936;BME280;6027;48.576;9.180;2022-10-31T02:43:50;97310.06;;;11.35;100.00
11936;BME280;6027;48.576;9.180;2022-10-31T02:46:44;97323.66;;;11.32;100.00
11936;BME280;6027;48.576;9.180;2022-10-31T02:49:23;97325.47;;;11.31;100.00
11936;BME280;6027;48.576;9.180;2022-10-31T02:51:50;97326.69;;;11.21;100.00
11936;BME280;6027;48.576;9.180;2022-10-31T02:54:26;97320.47;;;11.14;100.00
11936;BME280;6027;48.576;9.180;2022-10-31T02:57:02;97328.25;;;11.15;100.00
11936;BME280;6027;48.576;9.180;2022-10-31T02:59:29;97330.16;;;11.21;100.00
11936;BME280;6027;48.576;9.180;2022-10-31T03:04:57;97321.91;;;11.16;100.00
11936;BME280;6027;48.576;9.180;2022-10-31T03:10:21;97324.91;;;10.82;100.00
11936;BME280;6027;48.576;9.180;2022-10-31T03:15:51;97322.91;;;10.84;100.00
11936;BME280;6027;48.576;9.180;2022-10-31T03:18:28;97324.41;;;10.79;100.00
11936;BME280;6027;48.576;9.180;2022-10-31T03:21:12;97317.03;;;10.66;100.00
11936;BME280;6027;48.576;9.180;2022-10-31T03:23:39;97319.03;;;10.64;100.00
11936;BME280;6027;48.576;9.180;2022-10-31T03:26:07;97316.66;;;10.38;100.00
11936;BME280;6027;48.576;9.180;2022-10-31T03:28:39;97322.56;;;10.40;100.00
11936;BME280;6027;48.576;9.180;2022-10-31T03:31:06;97314.47;;;10.50;100.00
11936;BME280;6027;48.576;9.180;2022-10-31T03:33:35;97329.34;;;10.43;100.00
11936;BME280;6027;48.576;9.180;2022-10-31T03:36:04;97325.41;;;10.38;100.00
11936;BME280;6027;48.576;9.180;2022-10-31T03:38:31;97329.56;;;10.25;100.00
11936;BME280;6027;48.576;9.180;2022-10-31T03:41:00;97320.81;;;10.24;100.00
11936;BME280;6027;48.576;9.180;2022-10-31T03:43:30;97318.34;;;9.90;100.00
11936;BME280;6027;48.576;9.180;2022-10-31T03:45:58;97315.72;;;9.98;100.00
11936;BME280;6027;48.576;9.180;2022-10-31T03:48:24;97316.84;;;10.04;100.00
11936;BME280;6027;48.576;9.180;2022-10-31T03:53:36;97314.41;;;9.78;100.00
11936;BME280;6027;48.576;9.180;2022-10-31T03:56:21;97309.28;;;9.77;100.00
11936;BME280;6027;48.576;9.180;2022-10-31T03:59:05;97316.53;;;9.91;100.00
11936;BME280;6027;48.576;9.180;2022-10-31T04:01:34;97317.03;;;9.94;100.00
11936;BME280;6027;48.576;9.180;2022-10-31T04:04:02;97306.63;;;9.93;100.00
11936;BME280;6027;48.576;9.180;2022-10-31T04:06:29;97307.94;;;9.89;100.00
11936;BME280;6027;48.576;9.180;2022-10-31T04:09:00;97315.72;;;9.82;100.00
11936;BME280;6027;48.576;9.180;2022-10-31T04:11:31;97310.63;;;9.81;100.00
11936;BME280;6027;48.576;9.180;2022-10-31T04:13:59;97306.31;;;9.80;100.00
11936;BME280;6027;48.576;9.180;2022-10-31T04:16:26;97312.28;;;9.57;100.00
11936;BME280;6027;48.576;9.180;2022-10-31T04:18:52;97303.81;;;9.70;100.00
11936;BME280;6027;48.576;9.180;2022-10-31T04:21:17;97313.41;;;9.71;100.00
11936;BME280;6027;48.576;9.180;2022-10-31T04:23:43;97307.78;;;9.82;100.00
11936;BME280;6027;48.576;9.180;2022-10-31T04:26:11;97303.97;;;9.85;100.00
11936;BME280;6027;48.576;9.180;2022-10-31T04:28:37;97315.91;;;9.81;100.00
11936;BME280;6027;48.576;9.180;2022-10-31T04:31:02;97310.28;;;9.76;100.00
11936;BME280;6027;48.576;9.180;2022-10-31T04:33:27;97294.41;;;9.76;100.00
11936;BME280;6027;48.576;9.180;2022-10-31T04:35:53;97296.38;;;9.82;100.00
11936;BME280;6027;48.576;9.180;2022-10-31T04:38:18;97297.03;;;9.92;100.00
11936;BME280;6027;48.576;9.180;2022-10-31T04:40:45;97303.81;;;9.94;100.00
11936;BME280;6027;48.576;9.180;2022-10-31T04:43:11;97298.19;;;9.89;100.00
11936;BME280;6027;48.576;9.180;2022-10-31T04:45:37;97292.75;;;9.91;100.00
11936;BME280;6027;48.576;9.180;2022-10-31T04:48:03;97301.16;;;9.94;100.00
11936;BME280;6027;48.576;9.180;2022-10-31T04:50:28;97298.66;;;10.01;100.00
11936;BME280;6027;48.576;9.180;2022-10-31T04:52:53;97295.53;;;9.97;100.00
11936;BME280;6027;48.576;9.180;2022-10-31T04:55:19;97284.63;;;9.84;100.00
11936;BME280;6027;48.576;9.180;2022-10-31T04:57:46;97292.09;;;9.81;100.00
11936;BME280;6027;48.576;9.180;2022-10-31T05:00:15;97283.47;;;9.87;100.00
11936;BME280;6027;48.576;9.180;2022-10-31T05:05:16;97290.47;;;9.55;100.00
11936;BME280;6027;48.576;9.180;2022-10-31T05:07:43;97287.16;;;9.61;100.00
11936;BME280;6027;48.576;9.180;2022-10-31T05:10:11;97277.25;;;9.55;100.00
11936;BME280;6027;48.576;9.180;2022-10-31T05:12:37;97277.56;;;9.36;100.00
11936;BME280;6027;48.576;9.180;2022-10-31T05:15:04;97276.41;;;9.39;100.00
11936;BME280;6027;48.576;9.180;2022-10-31T05:17:31;97277.72;;;9.26;100.00
11936;BME280;6027;48.576;9.180;2022-10-31T05:19:58;97277.25;;;9.23;100.00
11936;BME280;6027;48.576;9.180;2022-10-31T05:22:23;97278.19;;;9.06;100.00
11936;BME280;6027;48.576;9.180;2022-10-31T05:24:51;97282.50;;;9.15;100.00
11936;BME280;6027;48.576;9.180;2022-10-31T05:27:16;97277.06;;;9.16;100.00
11936;BME280;6027;48.576;9.180;2022-10-31T05:29:41;97271.75;;;9.24;100.00
11936;BME280;6027;48.576;9.180;2022-10-31T05:32:07;97270.94;;;9.24;100.00
11936;BME280;6027;48.576;9.180;2022-10-31T05:34:33;97270.31;;;9.22;100.00
11936;BME280;6027;48.576;9.180;2022-10-31T05:36:58;97267.31;;;9.17;100.00
11936;BME280;6027;48.576;9.180;2022-10-31T05:39:23;97263.00;;;9.08;100.00
11936;BME280;6027;48.576;9.180;2022-10-31T05:41:49;97257.09;;;9.22;100.00
11936;BME280;6027;48.576;9.180;2022-10-31T05:44:14;97265.34;;;9.19;100.00
11936;BME280;6027;48.576;9.180;2022-10-31T05:46:40;97255.41;;;9.13;100.00
11936;BME280;6027;48.576;9.180;2022-10-31T05:49:05;97257.06;;;9.06;100.00
11936;BME280;6027;48.576;9.180;2022-10-31T05:51:31;97253.59;;;9.05;100.00
11936;BME280;6027;48.576;9.180;2022-10-31T05:53:56;97256.22;;;9.05;100.00
11936;BME280;6027;48.576;9.180;2022-10-31T05:56:22;97250.28;;;9.11;100.00
11936;BME280;6027;48.576;9.180;2022-10-31T05:58:47;97252.47;;;9.16;100.00
11936;BME280;6027;48.576;9.180;2022-10-31T06:01:12;97256.06;;;9.07;100.00
11936;BME280;6027;48.576;9.180;2022-10-31T06:03:38;97263.00;;;9.08;100.00
11936;BME280;6027;48.576;9.180;2022-10-31T06:06:03;97260.69;;;9.13;100.00
11936;BME280;6027;48.576;9.180;2022-10-31T06:08:29;97266.16;;;9.11;100.00
11936;BME280;6027;48.576;9.180;2022-10-31T06:10:54;97267.47;;;9.07;100.00
11936;BME280;6027;48.576;9.180;2022-10-31T06:13:20;97265.66;;;9.08;100.00
11936;BME280;6027;48.576;9.180;2022-10-31T06:18:13;97255.41;;;9.13;100.00
11936;BME280;6027;48.576;9.180;2022-10-31T06:20:39;97266.16;;;9.11;100.00
11936;BME280;6027;48.576;9.180;2022-10-31T06:23:04;97258.72;;;9.15;100.00
11936;BME280;6027;48.576;9.180;2022-10-31T06:25:30;97264.69;;;9.17;100.00
11936;BME280;6027;48.576;9.180;2022-10-31T06:27:55;97268.47;;;9.14;100.00
11936;BME280;6027;48.576;9.180;2022-10-31T06:30:21;97268.78;;;9.11;100.00
11936;BME280;6027;48.576;9.180;2022-10-31T06:32:46;97271.09;;;9.06;100.00
11936;BME280;6027;48.576;9.180;2022-10-31T06:35:12;97264.97;;;9.06;100.00
11936;BME280;6027;48.576;9.180;2022-10-31T06:37:38;97273.06;;;8.96;100.00
11936;BME280;6027;48.576;9.180;2022-10-31T06:40:04;97276.22;;;8.99;100.00
11936;BME280;6027;48.576;9.180;2022-10-31T06:42:30;97272.41;;;8.94;100.00
11936;BME280;6027;48.576;9.180;2022-10-31T06:44:55;97257.06;;;8.97;100.00
11936;BME280;6027;48.576;9.180;2022-10-31T06:47:21;97271.75;;;9.00;100.00
11936;BME280;6027;48.576;9.180;2022-10-31T06:49:46;97269.13;;;9.00;100.00
11936;BME280;6027;48.576;9.180;2022-10-31T06:52:11;97257.38;;;8.94;100.00
11936;BME280;6027;48.576;9.180;2022-10-31T06:54:37;97264.97;;;9.06;100.00
11936;BME280;6027;48.576;9.180;2022-10-31T06:57:02;97263.50;;;9.11;100.00
11936;BME280;6027;48.576;9.180;2022-10-31T06:59:28;97262.34;;;9.14;100.00
11936;BME280;6027;48.576;9.180;2022-10-31T07:01:53;97249.47;;;9.03;100.00
11936;BME280;6027;48.576;9.180;2022-10-31T07:04:19;97266.97;;;9.12;100.00
11936;BME280;6027;48.576;9.180;2022-10-31T07:06:44;97262.34;;;9.14;100.00
11936;BME280;6027;48.576;9.180;2022-10-31T07:09:10;97278.19;;;9.06;100.00
11936;BME280;6027;48.576;9.180;2022-10-31T07:11:35;97267.31;;;9.00;100.00
11936;BME280;6027;48.576;9.180;2022-10-31T07:14:01;97273.53;;;8.91;100.00
11936;BME280;6027;48.576;9.180;2022-10-31T07:16:26;97272.41;;;8.94;100.00
11936;BME280;6027;48.576;9.180;2022-10-31T07:18:52;97261.84;;;8.94;100.00
11936;BME280;6027;48.576;9.180;2022-10-31T07:21:17;97271.72;;;8.92;100.00
11936;BME280;6027;48.576;9.180;2022-10-31T07:23:49;97241.19;;;8.81;100.00
11936;BME280;6027;48.576;9.180;2022-10-31T07:26:14;97269.78;;;9.02;100.00
11936;BME280;6027;48.576;9.180;2022-10-31T07:28:39;97267.13;;;9.10;100.00
11936;BME280;6027;48.576;9.180;2022-10-31T07:31:05;97262.84;;;9.17;100.00
11936;BME280;6027;48.576;9.180;2022-10-31T07:33:30;97263.00;;;9.24;100.00
11936;BME280;6027;48.576;9.180;2022-10-31T07:35:56;97264.03;;;9.23;100.00
11936;BME280;6027;48.576;9.180;2022-10-31T07:38:21;97267.97;;;9.19;100.00
11936;BME280;6027;48.576;9.180;2022-10-31T07:40:50;97261.69;;;9.28;100.00
11936;BME280;6027;48.576;9.180;2022-10-31T07:43:18;97261.53;;;9.29;100.00
11936;BME280;6027;48.576;9.180;2022-10-31T07:45:44;97273.91;;;9.29;100.00
11936;BME280;6027;48.576;9.180;2022-10-31T07:48:13;97258.56;;;9.24;100.00
11936;BME280;6027;48.576;9.180;2022-10-31T07:50:39;97256.44;;;9.36;100.00
11936;BME280;6027;48.576;9.180;2022-10-31T07:53:07;97259.06;;;9.44;100.00
11936;BME280;6027;48.576;9.180;2022-10-31T07:55:33;97259.38;;;9.49;100.00
11936;BME280;6027;48.576;9.180;2022-10-31T07:58:10;97262.03;;;9.49;100.00
11936;BME280;6027;48.576;9.180;2022-10-31T08:00:39;97259.56;;;9.48;100.00
11936;BME280;6027;48.576;9.180;2022-10-31T08:03:07;97265.84;;;9.55;100.00
11936;BME280;6027;48.576;9.180;2022-10-31T08:05:33;97256.09;;;9.55;100.00
11936;BME280;6027;48.576;9.180;2022-10-31T08:07:59;97258.41;;;9.50;100.00
11936;BME280;6027;48.576;9.180;2022-10-31T08:10:26;97263.69;;;9.58;100.00
11936;BME280;6027;48.576;9.180;2022-10-31T08:13:00;97264.00;;;9.63;100.00
11936;BME280;6027;48.576;9.180;2022-10-31T08:15:26;97257.22;;;9.69;100.00
11936;BME280;6027;48.576;9.180;2022-10-31T08:17:52;97259.91;;;9.61;100.00
11936;BME280;6027;48.576;9.180;2022-10-31T08:20:17;97257.56;;;9.74;100.00
11936;BME280;6027;48.576;9.180;2022-10-31T08:23:01;97251.25;;;9.83;100.00
11936;BME280;6027;48.576;9.180;2022-10-31T08:25:29;97263.16;;;9.87;100.00
11936;BME280;6027;48.576;9.180;2022-10-31T08:27:55;97266.44;;;9.89;100.00
11936;BME280;6027;48.576;9.180;2022-10-31T08:30:28;97254.88;;;9.98;100.00
11936;BME280;6027;48.576;9.180;2022-10-31T08:32:59;97254.66;;;10.08;100.00
11936;BME280;6027;48.576;9.180;2022-10-31T08:35:25;97246.41;;;10.19;100.00
11936;BME280;6027;48.576;9.180;2022-10-31T08:37:54;97247.38;;;10.18;100.00
11936;BME280;6027;48.576;9.180;2022-10-31T08:40:21;97242.09;;;10.10;100.00
11936;BME280;6027;48.576;9.180;2022-10-31T08:42:47;97249.03;;;10.27;100.00
11936;BME280;6027;48.576;9.180;2022-10-31T08:45:12;97245.31;;;10.45;100.00
11936;BME280;6027;48.576;9.180;2022-10-31T08:47:37;97250.25;;;10.48;100.00
11936;BME280;6027;48.576;9.180;2022-10-31T08:50:03;97248.75;;;10.53;100.00
11936;BME280;6027;48.576;9.180;2022-10-31T08:52:29;97246.53;;;10.65;100.00
11936;BME280;6027;48.576;9.180;2022-10-31T08:54:54;97241.41;;;10.63;100.00
11936;BME280;6027;48.576;9.180;2022-10-31T08:57:22;97238.38;;;10.75;100.00
11936;BME280;6027;48.576;9.180;2022-10-31T08:59:47;97235.16;;;10.87;100.00
11936;BME280;6027;48.576;9.180;2022-10-31T09:02:13;97244.06;;;10.94;100.00
11936;BME280;6027;48.576;9.180;2022-10-31T09:04:38;97241.34;;;11.02;100.00
11936;BME280;6027;48.576;9.180;2022-10-31T09:07:04;97246.31;;;11.05;100.00
11936;BME280;6027;48.576;9.180;2022-10-31T09:09:29;97245.44;;;11.13;100.00
11936;BME280;6027;48.576;9.180;2022-10-31T09:11:55;97246.69;;;11.17;100.00
11936;BME280;6027;48.576;9.180;2022-10-31T09:14:20;97244.66;;;11.27;100.00
11936;BME280;6027;48.576;9.180;2022-10-31T09:16:46;97237.06;;;11.24;100.00
11936;BME280;6027;48.576;9.180;2022-10-31T09:19:11;97230.53;;;11.35;100.00
11936;BME280;6027;48.576;9.180;2022-10-31T09:21:37;97230.78;;;11.40;100.00
11936;BME280;6027;48.576;9.180;2022-10-31T09:24:02;97234.44;;;11.39;100.00
11936;BME280;6027;48.576;9.180;2022-10-31T09:26:28;97224.59;;;11.48;100.00
11936;BME280;6027;48.576;9.180;2022-10-31T09:28:53;97234.69;;;11.52;100.00
11936;BME280;6027;48.576;9.180;2022-10-31T09:31:18;97232.84;;;11.53;100.00
11936;BME280;6027;48.576;9.180;2022-10-31T09:33:44;97232.69;;;11.54;100.00
11936;BME280;6027;48.576;9.180;2022-10-31T09:36:10;97219.97;;;11.64;100.00
11936;BME280;6027;48.576;9.180;2022-10-31T09:38:35;97218.63;;;11.68;100.00
11936;BME280;6027;48.576;9.180;2022-10-31T09:41:36;97217.06;;;11.74;100.00
11936;BME280;6027;48.576;9.180;2022-10-31T09:57:10;97208.97;;;12.20;100.00
11936;BME280;6027;48.576;9.180;2022-10-31T09:59:40;97211.81;;;12.18;100.00
11936;BME280;6027;48.576;9.180;2022-10-31T10:02:39;97215.09;;;12.35;100.00
11936;BME280;6027;48.576;9.180;2022-10-31T10:05:16;97213.03;;;12.52;100.00
11936;BME280;6027;48.576;9.180;2022-10-31T10:07:59;97216.69;;;12.65;100.00
11936;BME280;6027;48.576;9.180;2022-10-31T10:18:36;97200.97;;;12.85;100.00
11936;BME280;6027;48.576;9.180;2022-10-31T10:21:09;97217.31;;;13.03;100.00
11936;BME280;6027;48.576;9.180;2022-10-31T10:24:03;97207.38;;;13.12;100.00
11936;BME280;6027;48.576;9.180;2022-10-31T10:26:41;97200.75;;;13.23;100.00
11936;BME280;6027;48.576;9.180;2022-10-31T10:31:39;97205.19;;;13.37;100.00
11936;BME280;6027;48.576;9.180;2022-10-31T10:34:14;97196.00;;;13.39;100.00
11936;BME280;6027;48.576;9.180;2022-10-31T10:36:46;97193.53;;;13.38;100.00
11936;BME280;6027;48.576;9.180;2022-10-31T10:39:23;97198.66;;;13.39;100.00
11936;BME280;6027;48.576;9.180;2022-10-31T10:41:50;97194.59;;;13.43;100.00
11936;BME280;6027;48.576;9.180;2022-10-31T10:44:40;97196.47;;;13.49;100.00
11936;BME280;6027;48.576;9.180;2022-10-31T10:47:34;97187.81;;;13.69;100.00
11936;BME280;6027;48.576;9.180;2022-10-31T10:50:19;97180.84;;;13.68;100.00
11936;BME280;6027;48.576;9.180;2022-10-31T10:52:50;97177.88;;;13.77;100.00
11936;BME280;6027;48.576;9.180;2022-10-31T10:55:29;97168.81;;;13.72;100.00
11936;BME280;6027;48.576;9.180;2022-10-31T10:58:00;97172.38;;;13.86;100.00
11936;BME280;6027;48.576;9.180;2022-10-31T11:00:34;97171.03;;;13.96;100.00
11936;BME280;6027;48.576;9.180;2022-10-31T11:03:00;97160.81;;;14.06;100.00
11936;BME280;6027;48.576;9.180;2022-10-31T11:05:39;97155.72;;;14.11;100.00
11936;BME280;6027;48.576;9.180;2022-10-31T11:08:06;97156.41;;;14.20;100.00
11936;BME280;6027;48.576;9.180;2022-10-31T11:10:32;97156.59;;;14.25;100.00
11936;BME280;6027;48.576;9.180;2022-10-31T11:15:49;97133.78;;;14.50;100.00
11936;BME280;6027;48.576;9.180;2022-10-31T11:18:21;97134.25;;;14.61;100.00
11936;BME280;6027;48.576;9.180;2022-10-31T11:20:56;97137.47;;;14.43;100.00
11936;BME280;6027;48.576;9.180;2022-10-31T11:23:24;97131.78;;;14.59;100.00
11936;BME280;6027;48.576;9.180;2022-10-31T11:25:58;97127.91;;;14.75;100.00
11936;BME280;6027;48.576;9.180;2022-10-31T11:28:26;97127.31;;;14.86;100.00
11936;BME280;6027;48.576;9.180;2022-10-31T11:30:57;97126.94;;;14.96;100.00
11936;BME280;6027;48.576;9.180;2022-10-31T11:33:30;97124.66;;;15.06;100.00
11936;BME280;6027;48.576;9.180;2022-10-31T11:35:57;97107.66;;;15.00;100.00
11936;BME280;6027;48.576;9.180;2022-10-31T11:38:34;97110.09;;;15.21;100.00
11936;BME280;6027;48.576;9.180;2022-10-31T11:41:19;97108.69;;;15.26;100.00
11936;BME280;6027;48.576;9.180;2022-10-31T11:44:01;97107.25;;;15.36;100.00
11936;BME280;6027;48.576;9.180;2022-10-31T11:46:40;97104.97;;;15.46;100.00
11936;BME280;6027;48.576;9.180;2022-10-31T11:49:14;97101.72;;;15.38;99.86
11936;BME280;6027;48.576;9.180;2022-10-31T11:51:41;97092.84;;;15.44;99.82
11936;BME280;6027;48.576;9.180;2022-10-31T11:54:39;97089.56;;;15.48;100.00
11936;BME280;6027;48.576;9.180;2022-10-31T11:59:57;97087.75;;;15.56;99.32
11936;BME280;6027;48.576;9.180;2022-10-31T12:02:24;97084.03;;;15.63;99.20
11936;BME280;6027;48.576;9.180;2022-10-31T12:05:19;97081.16;;;15.71;100.00
11936;BME280;6027;48.576;9.180;2022-10-31T12:07:48;97080.72;;;15.74;100.00
11936;BME280;6027;48.576;9.180;2022-10-31T12:10:14;97072.88;;;15.93;100.00
11936;BME280;6027;48.576;9.180;2022-10-31T12:13:19;97088.22;;;15.97;100.00
11936;BME280;6027;48.576;9.180;2022-10-31T12:15:38;97082.25;;;16.02;100.00
11936;BME280;6027;48.576;9.180;2022-10-31T12:18:36;97072.63;;;16.01;100.00
11936;BME280;6027;48.576;9.180;2022-10-31T12:23:52;97064.38;;;16.09;100.00
11936;BME280;6027;48.576;9.180;2022-10-31T12:26:36;97061.09;;;16.07;100.00
11936;BME280;6027;48.576;9.180;2022-10-31T12:32:21;97046.50;;;16.09;100.00
11936;BME280;6027;48.576;9.180;2022-10-31T12:42:47;97027.31;;;16.19;100.00
11936;BME280;6027;48.576;9.180;2022-10-31T12:51:18;97018.13;;;16.15;99.39
11936;BME280;6027;48.576;9.180;2022-10-31T12:58:59;97011.56;;;16.11;100.00
11936;BME280;6027;48.576;9.180;2022-10-31T13:04:10;97004.94;;;16.20;100.00
11936;BME280;6027;48.576;9.180;2022-10-31T13:06:59;97006.56;;;16.21;100.00
11936;BME280;6027;48.576;9.180;2022-10-31T13:09:47;97006.78;;;16.19;100.00
11936;BME280;6027;48.576;9.180;2022-10-31T13:12:18;96998.31;;;16.29;100.00
11936;BME280;6027;48.576;9.180;2022-10-31T13:14:50;96991.97;;;16.23;100.00
11936;BME280;6027;48.576;9.180;2022-10-31T13:20:21;96993.81;;;16.23;100.00
11936;BME280;6027;48.576;9.180;2022-10-31T13:22:52;96994.63;;;16.23;100.00
11936;BME280;6027;48.576;9.180;2022-10-31T13:25:24;96992.34;;;16.27;100.00
11936;BME280;6027;48.576;9.180;2022-10-31T13:28:00;96993.91;;;16.41;100.00
11936;BME280;6027;48.576;9.180;2022-10-31T13:30:39;96987.88;;;16.52;99.55
11936;BME280;6027;48.576;9.180;2022-10-31T13:38:40;96969.81;;;16.48;97.18
11936;BME280;6027;48.576;9.180;2022-10-31T13:46:41;96967.03;;;16.68;96.20
11936;BME280;6027;48.576;9.180;2022-10-31T13:54:38;96944.00;;;16.67;98.40
11936;BME280;6027;48.576;9.180;2022-10-31T13:57:16;96953.66;;;16.68;99.02
11936;BME280;6027;48.576;9.180;2022-10-31T13:59:48;96953.81;;;16.73;99.42
11936;BME280;6027;48.576;9.180;2022-10-31T14:02:16;96951.28;;;16.78;99.03
11936;BME280;6027;48.576;9.180;2022-10-31T14:04:52;96948.19;;;16.81;96.74
11936;BME280;6027;48.576;9.180;2022-10-31T14:07:24;96943.22;;;16.84;97.48
11936;BME280;6027;48.576;9.180;2022-10-31T14:10:04;96936.19;;;16.90;94.53
11936;BME280;6027;48.576;9.180;2022-10-31T14:12:38;96935.28;;;16.96;94.85
11936;BME280;6027;48.576;9.180;2022-10-31T14:17:50;96931.66;;;17.09;93.09
11936;BME280;6027;48.576;9.180;2022-10-31T14:22:42;96937.50;;;16.99;90.24
11936;BME280;6027;48.576;9.180;2022-10-31T14:25:34;96933.66;;;17.13;89.60
11936;BME280;6027;48.576;9.180;2022-10-31T14:28:21;96927.88;;;17.16;88.90
11936;BME280;6027;48.576;9.180;2022-10-31T14:30:56;96922.38;;;17.11;90.81
11936;BME280;6027;48.576;9.180;2022-10-31T14:33:23;96931.75;;;17.20;91.00
11936;BME280;6027;48.576;9.180;2022-10-31T14:41:15;96928.03;;;17.21;89.23
11936;BME280;6027;48.576;9.180;2022-10-31T14:43:53;96924.91;;;17.24;87.54
11936;BME280;6027;48.576;9.180;2022-10-31T14:49:41;96918.50;;;17.25;88.02
11936;BME280;6027;48.576;9.180;2022-10-31T14:52:14;96918.69;;;17.31;86.36
11936;BME280;6027;48.576;9.180;2022-10-31T14:54:45;96922.50;;;17.35;85.16
11936;BME280;6027;48.576;9.180;2022-10-31T14:57:19;96925.34;;;17.40;86.38
11936;BME280;6027;48.576;9.180;2022-10-31T14:59:51;96916.50;;;17.39;85.40
11936;BME280;6027;48.576;9.180;2022-10-31T15:02:26;96922.06;;;17.38;86.65
11936;BME280;6027;48.576;9.180;2022-10-31T15:04:55;96922.28;;;17.36;85.42
11936;BME280;6027;48.576;9.180;2022-10-31T15:07:23;96921.25;;;17.37;86.29
11936;BME280;6027;48.576;9.180;2022-10-31T15:10:00;96915.31;;;17.35;86.93
11936;BME280;6027;48.576;9.180;2022-10-31T15:12:29;96914.59;;;17.28;87.94
11936;BME280;6027;48.576;9.180;2022-10-31T15:14:55;96914.66;;;17.21;88.76
11936;BME280;6027;48.576;9.180;2022-10-31T15:17:23;96904.16;;;17.20;88.64
11936;BME280;6027;48.576;9.180;2022-10-31T15:19:51;96905.19;;;17.19;88.05
11936;BME280;6027;48.576;9.180;2022-10-31T15:22:19;96906.09;;;17.13;88.84